sensor_id;sensor_type;location;lat;lon;timestamp;P1;durP1;ratioP1;P2;durP2;ratioP2
77581;SDS011;66726;52.388;9.986;2023-05-20T00:01:50;6.07;;;3.20;;
77581;SDS011;66726;52.388;9.986;2023-05-20T00:04:23;3.23;;;2.40;;
77581;SDS011;66726;52.388;9.986;2023-05-20T00:06:57;3.27;;;2.53;;
77581;SDS011;66726;52.388;9.986;2023-05-20T00:09:30;3.03;;;2.70;;
77581;SDS011;66726;52.388;9.986;2023-05-20T00:12:07;2.90;;;2.60;;
77581;SDS011;66726;52.388;9.986;2023-05-20T00:14:40;3.30;;;2.50;;
77581;SDS011;66726;52.388;9.986;2023-05-20T00:17:13;2.90;;;2.60;;
77581;SDS011;66726;52.388;9.986;2023-05-20T00:19:47;2.90;;;2.60;;
77581;SDS011;66726;52.388;9.986;2023-05-20T00:22:20;4.23;;;2.60;;
77581;SDS011;66726;52.388;9.986;2023-05-20T00:24:54;2.80;;;2.50;;
77581;SDS011;66726;52.388;9.986;2023-05-20T00:27:27;3.97;;;2.50;;
77581;SDS011;66726;52.388;9.986;2023-05-20T00:30:00;4.80;;;2.23;;
77581;SDS011;66726;52.388;9.986;2023-05-20T00:32:35;2.77;;;2.30;;
77581;SDS011;66726;52.388;9.986;2023-05-20T00:35:08;2.57;;;2.37;;
77581;SDS011;66726;52.388;9.986;2023-05-20T00:37:42;5.73;;;2.83;;
77581;SDS011;66726;52.388;9.986;2023-05-20T00:40:15;2.70;;;2.30;;
77581;SDS011;66726;52.388;9.986;2023-05-20T00:42:50;2.73;;;2.30;;
77581;SDS011;66726;52.388;9.986;2023-05-20T00:45:23;4.77;;;2.40;;
77581;SDS011;66726;52.388;9.986;2023-05-20T00:47:57;3.27;;;2.27;;
77581;SDS011;66726;52.388;9.986;2023-05-20T00:50:32;3.77;;;2.03;;
77581;SDS011;66726;52.388;9.986;2023-05-20T00:53:06;3.63;;;2.17;;
77581;SDS011;66726;52.388;9.986;2023-05-20T00:55:40;2.80;;;2.10;;
77581;SDS011;66726;52.388;9.986;2023-05-20T00:58:14;2.97;;;2.13;;
77581;SDS011;66726;52.388;9.986;2023-05-20T01:00:47;2.23;;;2.03;;
77581;SDS011;66726;52.388;9.986;2023-05-20T01:03:22;2.40;;;2.03;;
77581;SDS011;66726;52.388;9.986;2023-05-20T01:05:56;3.07;;;2.20;;
77581;SDS011;66726;52.388;9.986;2023-05-20T01:08:30;3.87;;;2.13;;
77581;SDS011;66726;52.388;9.986;2023-05-20T01:11:05;4.40;;;2.00;;
77581;SDS011;66726;52.388;9.986;2023-05-20T01:13:46;2.83;;;2.10;;
77581;SDS011;66726;52.388;9.986;2023-05-20T01:16:26;3.53;;;2.03;;
77581;SDS011;66726;52.388;9.986;2023-05-20T01:19:03;5.13;;;2.10;;
77581;SDS011;66726;52.388;9.986;2023-05-20T01:22:04;3.90;;;2.33;;
77581;SDS011;66726;52.388;9.986;2023-05-20T01:24:41;4.37;;;2.20;;
77581;SDS011;66726;52.388;9.986;2023-05-20T01:27:16;3.30;;;2.10;;
77581;SDS011;66726;52.388;9.986;2023-05-20T01:29:51;2.83;;;2.10;;
77581;SDS011;66726;52.388;9.986;2023-05-20T01:32:26;5.50;;;2.10;;
77581;SDS011;66726;52.388;9.986;2023-05-20T01:35:05;3.07;;;2.10;;
77581;SDS011;66726;52.388;9.986;2023-05-20T01:37:41;6.03;;;2.03;;
77581;SDS011;66726;52.388;9.986;2023-05-20T01:40:16;2.30;;;2.10;;
77581;SDS011;66726;52.388;9.986;2023-05-20T01:42:51;3.20;;;2.00;;
77581;SDS011;66726;52.388;9.986;2023-05-20T01:45:27;4.23;;;2.07;;
77581;SDS011;66726;52.388;9.986;2023-05-20T01:48:01;3.00;;;2.07;;
77581;SDS011;66726;52.388;9.986;2023-05-20T01:50:36;3.03;;;2.23;;
77581;SDS011;66726;52.388;9.986;2023-05-20T01:53:10;2.87;;;1.60;;
77581;SDS011;66726;52.388;9.986;2023-05-20T01:55:43;4.40;;;2.17;;
77581;SDS011;66726;52.388;9.986;2023-05-20T01:58:16;2.77;;;1.90;;
77581;SDS011;66726;52.388;9.986;2023-05-20T02:00:50;3.50;;;1.80;;
77581;SDS011;66726;52.388;9.986;2023-05-20T02:03:23;4.70;;;2.33;;
77581;SDS011;66726;52.388;9.986;2023-05-20T02:05:57;2.00;;;1.80;;
77581;SDS011;66726;52.388;9.986;2023-05-20T02:08:30;2.73;;;1.90;;
77581;SDS011;66726;52.388;9.986;2023-05-20T02:11:03;2.70;;;2.10;;
77581;SDS011;66726;52.388;9.986;2023-05-20T02:13:37;4.57;;;1.83;;
77581;SDS011;66726;52.388;9.986;2023-05-20T02:16:10;2.33;;;1.90;;
77581;SDS011;66726;52.388;9.986;2023-05-20T02:18:44;2.70;;;2.00;;
77581;SDS011;66726;52.388;9.986;2023-05-20T02:21:18;3.17;;;2.10;;
77581;SDS011;66726;52.388;9.986;2023-05-20T02:23:51;2.63;;;2.10;;
77581;SDS011;66726;52.388;9.986;2023-05-20T02:26:24;3.40;;;1.90;;
77581;SDS011;66726;52.388;9.986;2023-05-20T02:28:58;3.87;;;2.33;;
77581;SDS011;66726;52.388;9.986;2023-05-20T02:31:31;2.67;;;2.13;;
77581;SDS011;66726;52.388;9.986;2023-05-20T02:34:05;2.43;;;2.00;;
77581;SDS011;66726;52.388;9.986;2023-05-20T02:36:38;4.10;;;2.00;;
77581;SDS011;66726;52.388;9.986;2023-05-20T02:39:11;2.80;;;2.13;;
77581;SDS011;66726;52.388;9.986;2023-05-20T02:41:44;2.50;;;1.97;;
77581;SDS011;66726;52.388;9.986;2023-05-20T02:44:18;2.63;;;2.10;;
77581;SDS011;66726;52.388;9.986;2023-05-20T02:46:51;2.10;;;1.90;;
77581;SDS011;66726;52.388;9.986;2023-05-20T02:49:25;2.33;;;2.10;;
77581;SDS011;66726;52.388;9.986;2023-05-20T02:51:58;3.83;;;2.27;;
77581;SDS011;66726;52.388;9.986;2023-05-20T02:54:32;3.40;;;2.00;;
77581;SDS011;66726;52.388;9.986;2023-05-20T02:57:06;4.50;;;2.10;;
77581;SDS011;66726;52.388;9.986;2023-05-20T02:59:40;2.37;;;2.00;;
77581;SDS011;66726;52.388;9.986;2023-05-20T03:02:13;2.27;;;1.60;;
77581;SDS011;66726;52.388;9.986;2023-05-20T03:04:46;2.80;;;2.00;;
77581;SDS011;66726;52.388;9.986;2023-05-20T03:07:20;4.13;;;2.30;;
77581;SDS011;66726;52.388;9.986;2023-05-20T03:09:54;2.40;;;2.20;;
77581;SDS011;66726;52.388;9.986;2023-05-20T03:12:29;5.30;;;2.20;;
77581;SDS011;66726;52.388;9.986;2023-05-20T03:15:03;3.73;;;2.00;;
77581;SDS011;66726;52.388;9.986;2023-05-20T03:17:39;2.30;;;2.03;;
77581;SDS011;66726;52.388;9.986;2023-05-20T03:20:13;2.37;;;2.17;;
77581;SDS011;66726;52.388;9.986;2023-05-20T03:22:47;4.03;;;2.27;;
77581;SDS011;66726;52.388;9.986;2023-05-20T03:25:21;5.67;;;2.37;;
77581;SDS011;66726;52.388;9.986;2023-05-20T03:27:55;4.93;;;2.33;;
77581;SDS011;66726;52.388;9.986;2023-05-20T03:30:29;2.50;;;2.30;;
77581;SDS011;66726;52.388;9.986;2023-05-20T03:33:02;3.50;;;2.20;;
77581;SDS011;66726;52.388;9.986;2023-05-20T03:35:35;4.67;;;2.33;;
77581;SDS011;66726;52.388;9.986;2023-05-20T03:38:09;3.37;;;2.30;;
77581;SDS011;66726;52.388;9.986;2023-05-20T03:40:43;3.13;;;2.00;;
77581;SDS011;66726;52.388;9.986;2023-05-20T03:43:16;2.30;;;2.07;;
77581;SDS011;66726;52.388;9.986;2023-05-20T03:45:50;2.93;;;2.27;;
77581;SDS011;66726;52.388;9.986;2023-05-20T03:48:23;2.93;;;2.20;;
77581;SDS011;66726;52.388;9.986;2023-05-20T03:50:56;5.97;;;2.40;;
77581;SDS011;66726;52.388;9.986;2023-05-20T03:53:30;4.23;;;2.50;;
77581;SDS011;66726;52.388;9.986;2023-05-20T03:56:03;4.23;;;2.30;;
77581;SDS011;66726;52.388;9.986;2023-05-20T03:58:36;3.83;;;2.30;;
77581;SDS011;66726;52.388;9.986;2023-05-20T04:01:11;3.80;;;2.40;;
77581;SDS011;66726;52.388;9.986;2023-05-20T04:03:44;2.50;;;2.20;;
77581;SDS011;66726;52.388;9.986;2023-05-20T04:06:18;3.43;;;2.20;;
77581;SDS011;66726;52.388;9.986;2023-05-20T04:08:51;2.50;;;2.10;;
77581;SDS011;66726;52.388;9.986;2023-05-20T04:11:25;2.83;;;2.10;;
77581;SDS011;66726;52.388;9.986;2023-05-20T04:13:58;4.70;;;2.43;;
77581;SDS011;66726;52.388;9.986;2023-05-20T04:16:31;4.83;;;2.40;;
77581;SDS011;66726;52.388;9.986;2023-05-20T04:19:06;3.17;;;2.33;;
77581;SDS011;66726;52.388;9.986;2023-05-20T04:21:41;3.93;;;2.20;;
77581;SDS011;66726;52.388;9.986;2023-05-20T04:24:15;2.67;;;2.20;;
77581;SDS011;66726;52.388;9.986;2023-05-20T04:26:52;4.63;;;2.33;;
77581;SDS011;66726;52.388;9.986;2023-05-20T04:29:25;2.87;;;2.10;;
77581;SDS011;66726;52.388;9.986;2023-05-20T04:32:01;2.27;;;2.07;;
77581;SDS011;66726;52.388;9.986;2023-05-20T04:34:37;3.17;;;2.10;;
77581;SDS011;66726;52.388;9.986;2023-05-20T04:37:12;3.70;;;2.33;;
77581;SDS011;66726;52.388;9.986;2023-05-20T04:39:46;3.50;;;2.57;;
77581;SDS011;66726;52.388;9.986;2023-05-20T04:42:19;5.73;;;2.60;;
77581;SDS011;66726;52.388;9.986;2023-05-20T04:44:52;8.10;;;3.07;;
77581;SDS011;66726;52.388;9.986;2023-05-20T04:47:28;2.60;;;2.40;;
77581;SDS011;66726;52.388;9.986;2023-05-20T04:50:07;3.83;;;2.90;;
77581;SDS011;66726;52.388;9.986;2023-05-20T04:52:42;7.10;;;2.93;;
77581;SDS011;66726;52.388;9.986;2023-05-20T04:55:16;3.17;;;2.70;;
77581;SDS011;66726;52.388;9.986;2023-05-20T04:57:52;6.30;;;2.67;;
77581;SDS011;66726;52.388;9.986;2023-05-20T05:00:25;4.70;;;2.77;;
77581;SDS011;66726;52.388;9.986;2023-05-20T05:02:58;5.10;;;2.60;;
77581;SDS011;66726;52.388;9.986;2023-05-20T05:05:32;3.43;;;2.53;;
77581;SDS011;66726;52.388;9.986;2023-05-20T05:08:07;4.43;;;2.73;;
77581;SDS011;66726;52.388;9.986;2023-05-20T05:10:41;4.07;;;2.80;;
77581;SDS011;66726;52.388;9.986;2023-05-20T05:13:14;3.17;;;2.80;;
77581;SDS011;66726;52.388;9.986;2023-05-20T05:15:47;4.53;;;2.70;;
77581;SDS011;66726;52.388;9.986;2023-05-20T05:18:30;5.53;;;2.37;;
77581;SDS011;66726;52.388;9.986;2023-05-20T05:21:05;3.20;;;2.80;;
77581;SDS011;66726;52.388;9.986;2023-05-20T05:23:39;3.13;;;2.70;;
77581;SDS011;66726;52.388;9.986;2023-05-20T05:26:13;4.30;;;2.93;;
77581;SDS011;66726;52.388;9.986;2023-05-20T05:28:46;5.53;;;3.20;;
77581;SDS011;66726;52.388;9.986;2023-05-20T05:31:19;3.90;;;3.10;;
77581;SDS011;66726;52.388;9.986;2023-05-20T05:33:53;4.50;;;3.27;;
77581;SDS011;66726;52.388;9.986;2023-05-20T05:36:26;3.53;;;2.97;;
77581;SDS011;66726;52.388;9.986;2023-05-20T05:39:02;4.50;;;2.93;;
77581;SDS011;66726;52.388;9.986;2023-05-20T05:41:35;3.67;;;3.37;;
77581;SDS011;66726;52.388;9.986;2023-05-20T05:44:09;4.73;;;3.60;;
77581;SDS011;66726;52.388;9.986;2023-05-20T05:46:42;6.40;;;3.73;;
77581;SDS011;66726;52.388;9.986;2023-05-20T05:49:16;7.83;;;3.80;;
77581;SDS011;66726;52.388;9.986;2023-05-20T05:51:50;5.87;;;4.03;;
77581;SDS011;66726;52.388;9.986;2023-05-20T05:54:24;4.87;;;3.70;;
77581;SDS011;66726;52.388;9.986;2023-05-20T05:56:57;8.90;;;4.00;;
77581;SDS011;66726;52.388;9.986;2023-05-20T05:59:33;6.43;;;3.60;;
77581;SDS011;66726;52.388;9.986;2023-05-20T06:02:06;6.20;;;4.40;;
77581;SDS011;66726;52.388;9.986;2023-05-20T06:04:41;5.33;;;4.50;;
77581;SDS011;66726;52.388;9.986;2023-05-20T06:07:15;6.77;;;4.30;;
77581;SDS011;66726;52.388;9.986;2023-05-20T06:09:48;7.93;;;4.47;;
77581;SDS011;66726;52.388;9.986;2023-05-20T06:12:22;5.33;;;3.73;;
77581;SDS011;66726;52.388;9.986;2023-05-20T06:14:56;6.37;;;4.33;;
77581;SDS011;66726;52.388;9.986;2023-05-20T06:17:29;6.33;;;4.23;;
77581;SDS011;66726;52.388;9.986;2023-05-20T06:20:02;5.83;;;4.10;;
77581;SDS011;66726;52.388;9.986;2023-05-20T06:22:38;6.70;;;4.53;;
77581;SDS011;66726;52.388;9.986;2023-05-20T06:25:11;5.43;;;4.63;;
77581;SDS011;66726;52.388;9.986;2023-05-20T06:27:45;5.23;;;4.73;;
77581;SDS011;66726;52.388;9.986;2023-05-20T06:30:19;5.90;;;4.67;;
77581;SDS011;66726;52.388;9.986;2023-05-20T06:32:52;4.53;;;3.80;;
77581;SDS011;66726;52.388;9.986;2023-05-20T06:35:26;5.80;;;4.27;;
77581;SDS011;66726;52.388;9.986;2023-05-20T06:38:01;6.10;;;4.30;;
77581;SDS011;66726;52.388;9.986;2023-05-20T06:40:35;6.07;;;4.33;;
77581;SDS011;66726;52.388;9.986;2023-05-20T06:43:08;7.23;;;4.13;;
77581;SDS011;66726;52.388;9.986;2023-05-20T06:45:42;6.30;;;4.10;;
77581;SDS011;66726;52.388;9.986;2023-05-20T06:48:15;6.73;;;4.47;;
77581;SDS011;66726;52.388;9.986;2023-05-20T06:50:49;6.83;;;4.30;;
77581;SDS011;66726;52.388;9.986;2023-05-20T06:53:22;5.50;;;4.23;;
77581;SDS011;66726;52.388;9.986;2023-05-20T06:55:58;6.23;;;3.90;;
77581;SDS011;66726;52.388;9.986;2023-05-20T06:58:31;5.97;;;3.87;;
77581;SDS011;66726;52.388;9.986;2023-05-20T07:01:04;6.00;;;4.10;;
77581;SDS011;66726;52.388;9.986;2023-05-20T07:03:38;6.70;;;3.47;;
77581;SDS011;66726;52.388;9.986;2023-05-20T07:06:11;5.67;;;3.63;;
77581;SDS011;66726;52.388;9.986;2023-05-20T07:08:44;5.60;;;4.03;;
77581;SDS011;66726;52.388;9.986;2023-05-20T07:11:18;3.70;;;3.33;;
77581;SDS011;66726;52.388;9.986;2023-05-20T07:13:51;5.03;;;4.00;;
77581;SDS011;66726;52.388;9.986;2023-05-20T07:16:24;4.47;;;4.07;;
77581;SDS011;66726;52.388;9.986;2023-05-20T07:18:59;5.73;;;3.90;;
77581;SDS011;66726;52.388;9.986;2023-05-20T07:21:33;5.00;;;3.90;;
77581;SDS011;66726;52.388;9.986;2023-05-20T07:24:07;4.27;;;3.70;;
77581;SDS011;66726;52.388;9.986;2023-05-20T07:26:40;4.77;;;3.77;;
77581;SDS011;66726;52.388;9.986;2023-05-20T07:29:14;4.67;;;3.70;;
77581;SDS011;66726;52.388;9.986;2023-05-20T07:31:48;4.53;;;4.00;;
77581;SDS011;66726;52.388;9.986;2023-05-20T07:34:21;6.30;;;4.07;;
77581;SDS011;66726;52.388;9.986;2023-05-20T07:36:55;6.10;;;3.50;;
77581;SDS011;66726;52.388;9.986;2023-05-20T07:39:29;5.37;;;3.80;;
77581;SDS011;66726;52.388;9.986;2023-05-20T07:42:02;6.10;;;3.53;;
77581;SDS011;66726;52.388;9.986;2023-05-20T07:44:37;3.63;;;3.30;;
77581;SDS011;66726;52.388;9.986;2023-05-20T07:47:12;4.43;;;3.40;;
77581;SDS011;66726;52.388;9.986;2023-05-20T07:49:45;3.87;;;3.37;;
77581;SDS011;66726;52.388;9.986;2023-05-20T07:52:18;9.73;;;4.00;;
77581;SDS011;66726;52.388;9.986;2023-05-20T07:54:51;6.30;;;3.50;;
77581;SDS011;66726;52.388;9.986;2023-05-20T07:57:25;4.50;;;3.27;;
77581;SDS011;66726;52.388;9.986;2023-05-20T07:59:58;6.13;;;3.93;;
77581;SDS011;66726;52.388;9.986;2023-05-20T08:02:33;4.40;;;3.07;;
77581;SDS011;66726;52.388;9.986;2023-05-20T08:05:07;5.57;;;3.40;;
77581;SDS011;66726;52.388;9.986;2023-05-20T08:07:41;5.93;;;3.63;;
77581;SDS011;66726;52.388;9.986;2023-05-20T08:10:14;4.60;;;3.40;;
77581;SDS011;66726;52.388;9.986;2023-05-20T08:12:48;5.10;;;3.17;;
77581;SDS011;66726;52.388;9.986;2023-05-20T08:15:21;5.03;;;3.40;;
77581;SDS011;66726;52.388;9.986;2023-05-20T08:17:54;4.07;;;3.53;;
77581;SDS011;66726;52.388;9.986;2023-05-20T08:20:28;4.20;;;3.80;;
77581;SDS011;66726;52.388;9.986;2023-05-20T08:23:02;5.23;;;3.37;;
77581;SDS011;66726;52.388;9.986;2023-05-20T08:25:35;5.87;;;3.23;;
77581;SDS011;66726;52.388;9.986;2023-05-20T08:28:08;4.07;;;3.67;;
77581;SDS011;66726;52.388;9.986;2023-05-20T08:30:42;5.10;;;3.87;;
77581;SDS011;66726;52.388;9.986;2023-05-20T08:33:15;4.17;;;3.77;;
77581;SDS011;66726;52.388;9.986;2023-05-20T08:35:49;5.20;;;3.57;;
77581;SDS011;66726;52.388;9.986;2023-05-20T08:38:22;4.87;;;3.40;;
77581;SDS011;66726;52.388;9.986;2023-05-20T08:40:56;4.00;;;3.60;;
77581;SDS011;66726;52.388;9.986;2023-05-20T08:43:31;6.30;;;3.70;;
77581;SDS011;66726;52.388;9.986;2023-05-20T08:46:05;4.17;;;3.10;;
77581;SDS011;66726;52.388;9.986;2023-05-20T08:48:42;4.17;;;3.23;;
77581;SDS011;66726;52.388;9.986;2023-05-20T08:51:18;3.20;;;2.87;;
77581;SDS011;66726;52.388;9.986;2023-05-20T08:53:55;5.27;;;3.10;;
77581;SDS011;66726;52.388;9.986;2023-05-20T08:56:30;3.43;;;3.13;;
77581;SDS011;66726;52.388;9.986;2023-05-20T08:59:05;5.20;;;3.67;;
77581;SDS011;66726;52.388;9.986;2023-05-20T09:01:40;4.03;;;3.10;;
77581;SDS011;66726;52.388;9.986;2023-05-20T09:04:13;4.57;;;3.17;;
77581;SDS011;66726;52.388;9.986;2023-05-20T09:06:49;3.93;;;3.03;;
77581;SDS011;66726;52.388;9.986;2023-05-20T09:09:23;5.50;;;3.00;;
77581;SDS011;66726;52.388;9.986;2023-05-20T09:11:57;4.87;;;3.20;;
77581;SDS011;66726;52.388;9.986;2023-05-20T09:14:32;4.70;;;2.90;;
77581;SDS011;66726;52.388;9.986;2023-05-20T09:17:06;2.93;;;2.63;;
77581;SDS011;66726;52.388;9.986;2023-05-20T09:19:40;3.40;;;3.10;;
77581;SDS011;66726;52.388;9.986;2023-05-20T09:22:15;4.30;;;3.00;;
77581;SDS011;66726;52.388;9.986;2023-05-20T09:24:55;3.37;;;2.97;;
77581;SDS011;66726;52.388;9.986;2023-05-20T09:27:28;4.47;;;3.13;;
77581;SDS011;66726;52.388;9.986;2023-05-20T09:30:05;3.47;;;3.00;;
77581;SDS011;66726;52.388;9.986;2023-05-20T09:32:41;3.23;;;2.93;;
77581;SDS011;66726;52.388;9.986;2023-05-20T09:35:14;3.30;;;2.90;;
77581;SDS011;66726;52.388;9.986;2023-05-20T09:37:50;4.70;;;3.03;;
77581;SDS011;66726;52.388;9.986;2023-05-20T09:40:26;3.37;;;2.80;;
77581;SDS011;66726;52.388;9.986;2023-05-20T09:43:01;3.70;;;3.20;;
77581;SDS011;66726;52.388;9.986;2023-05-20T09:45:36;4.13;;;3.03;;
77581;SDS011;66726;52.388;9.986;2023-05-20T09:48:09;3.33;;;2.90;;
77581;SDS011;66726;52.388;9.986;2023-05-20T09:50:44;5.37;;;3.80;;
77581;SDS011;66726;52.388;9.986;2023-05-20T09:53:19;4.67;;;2.90;;
77581;SDS011;66726;52.388;9.986;2023-05-20T09:55:57;4.37;;;2.87;;
77581;SDS011;66726;52.388;9.986;2023-05-20T09:58:31;3.73;;;3.03;;
77581;SDS011;66726;52.388;9.986;2023-05-20T10:01:07;3.10;;;2.80;;
77581;SDS011;66726;52.388;9.986;2023-05-20T10:03:40;2.97;;;2.67;;
77581;SDS011;66726;52.388;9.986;2023-05-20T10:06:20;4.37;;;2.97;;
77581;SDS011;66726;52.388;9.986;2023-05-20T10:09:16;4.87;;;3.10;;
77581;SDS011;66726;52.388;9.986;2023-05-20T10:12:10;3.83;;;2.80;;
77581;SDS011;66726;52.388;9.986;2023-05-20T10:14:57;2.47;;;2.20;;
77581;SDS011;66726;52.388;9.986;2023-05-20T10:17:47;4.10;;;2.90;;
77581;SDS011;66726;52.388;9.986;2023-05-20T10:20:34;3.60;;;3.30;;
77581;SDS011;66726;52.388;9.986;2023-05-20T10:23:21;4.60;;;3.60;;
77581;SDS011;66726;52.388;9.986;2023-05-20T10:26:04;5.77;;;3.70;;
77581;SDS011;66726;52.388;9.986;2023-05-20T10:28:39;3.77;;;3.20;;
77581;SDS011;66726;52.388;9.986;2023-05-20T10:31:19;4.13;;;3.40;;
77581;SDS011;66726;52.388;9.986;2023-05-20T10:33:54;5.07;;;3.07;;
77581;SDS011;66726;52.388;9.986;2023-05-20T10:36:31;3.70;;;3.20;;
77581;SDS011;66726;52.388;9.986;2023-05-20T10:39:05;6.33;;;3.47;;
77581;SDS011;66726;52.388;9.986;2023-05-20T10:41:44;5.67;;;3.30;;
77581;SDS011;66726;52.388;9.986;2023-05-20T10:44:18;4.93;;;3.50;;
77581;SDS011;66726;52.388;9.986;2023-05-20T10:47:02;5.93;;;3.77;;
77581;SDS011;66726;52.388;9.986;2023-05-20T10:49:53;6.10;;;3.83;;
77581;SDS011;66726;52.388;9.986;2023-05-20T10:52:31;4.20;;;3.70;;
77581;SDS011;66726;52.388;9.986;2023-05-20T10:55:17;4.17;;;3.60;;
77581;SDS011;66726;52.388;9.986;2023-05-20T10:57:52;4.10;;;3.50;;
77581;SDS011;66726;52.388;9.986;2023-05-20T11:00:25;4.53;;;3.40;;
77581;SDS011;66726;52.388;9.986;2023-05-20T11:02:59;4.73;;;3.70;;
77581;SDS011;66726;52.388;9.986;2023-05-20T11:05:34;4.93;;;3.67;;
77581;SDS011;66726;52.388;9.986;2023-05-20T11:08:09;8.10;;;4.30;;
77581;SDS011;66726;52.388;9.986;2023-05-20T11:10:56;3.90;;;3.60;;
77581;SDS011;66726;52.388;9.986;2023-05-20T11:13:29;5.50;;;3.47;;
77581;SDS011;66726;52.388;9.986;2023-05-20T11:16:03;5.23;;;3.57;;
77581;SDS011;66726;52.388;9.986;2023-05-20T11:18:38;6.97;;;3.93;;
77581;SDS011;66726;52.388;9.986;2023-05-20T11:21:11;5.33;;;3.30;;
77581;SDS011;66726;52.388;9.986;2023-05-20T11:23:46;4.77;;;3.80;;
77581;SDS011;66726;52.388;9.986;2023-05-20T11:26:21;4.47;;;3.93;;
77581;SDS011;66726;52.388;9.986;2023-05-20T11:28:56;5.63;;;4.50;;
77581;SDS011;66726;52.388;9.986;2023-05-20T11:31:31;4.80;;;3.53;;
77581;SDS011;66726;52.388;9.986;2023-05-20T11:34:08;5.43;;;4.13;;
77581;SDS011;66726;52.388;9.986;2023-05-20T11:36:41;5.07;;;3.87;;
77581;SDS011;66726;52.388;9.986;2023-05-20T11:39:17;4.47;;;3.97;;
77581;SDS011;66726;52.388;9.986;2023-05-20T11:41:51;4.83;;;3.50;;
77581;SDS011;66726;52.388;9.986;2023-05-20T11:44:24;6.93;;;3.97;;
77581;SDS011;66726;52.388;9.986;2023-05-20T11:47:00;5.20;;;3.63;;
77581;SDS011;66726;52.388;9.986;2023-05-20T11:49:39;4.83;;;3.53;;
77581;SDS011;66726;52.388;9.986;2023-05-20T11:52:16;5.30;;;3.93;;
77581;SDS011;66726;52.388;9.986;2023-05-20T11:54:51;5.33;;;3.77;;
77581;SDS011;66726;52.388;9.986;2023-05-20T11:57:25;4.70;;;3.67;;
77581;SDS011;66726;52.388;9.986;2023-05-20T11:59:58;4.93;;;4.10;;
77581;SDS011;66726;52.388;9.986;2023-05-20T12:02:34;4.40;;;3.90;;
77581;SDS011;66726;52.388;9.986;2023-05-20T12:05:07;5.83;;;3.97;;
77581;SDS011;66726;52.388;9.986;2023-05-20T12:07:41;6.10;;;4.30;;
77581;SDS011;66726;52.388;9.986;2023-05-20T12:10:16;4.90;;;4.20;;
77581;SDS011;66726;52.388;9.986;2023-05-20T12:12:49;5.93;;;4.33;;
77581;SDS011;66726;52.388;9.986;2023-05-20T12:15:22;6.10;;;4.43;;
77581;SDS011;66726;52.388;9.986;2023-05-20T12:17:56;6.17;;;3.80;;
77581;SDS011;66726;52.388;9.986;2023-05-20T12:20:29;4.87;;;4.07;;
77581;SDS011;66726;52.388;9.986;2023-05-20T12:23:04;10.13;;;4.20;;
77581;SDS011;66726;52.388;9.986;2023-05-20T12:25:37;4.50;;;4.00;;
77581;SDS011;66726;52.388;9.986;2023-05-20T12:28:12;4.47;;;3.80;;
77581;SDS011;66726;52.388;9.986;2023-05-20T12:30:45;4.23;;;3.83;;
77581;SDS011;66726;52.388;9.986;2023-05-20T12:33:19;4.60;;;3.77;;
77581;SDS011;66726;52.388;9.986;2023-05-20T12:35:54;5.07;;;4.13;;
77581;SDS011;66726;52.388;9.986;2023-05-20T12:38:28;4.23;;;3.83;;
77581;SDS011;66726;52.388;9.986;2023-05-20T12:41:01;5.33;;;4.10;;
77581;SDS011;66726;52.388;9.986;2023-05-20T12:43:34;5.07;;;4.10;;
77581;SDS011;66726;52.388;9.986;2023-05-20T12:46:07;5.33;;;4.30;;
77581;SDS011;66726;52.388;9.986;2023-05-20T12:48:41;7.90;;;4.83;;
77581;SDS011;66726;52.388;9.986;2023-05-20T12:51:14;5.43;;;4.90;;
77581;SDS011;66726;52.388;9.986;2023-05-20T12:53:48;5.17;;;4.50;;
77581;SDS011;66726;52.388;9.986;2023-05-20T12:56:21;7.03;;;5.07;;
77581;SDS011;66726;52.388;9.986;2023-05-20T12:58:54;4.87;;;4.37;;
77581;SDS011;66726;52.388;9.986;2023-05-20T13:01:28;6.43;;;4.70;;
77581;SDS011;66726;52.388;9.986;2023-05-20T13:04:02;5.90;;;4.53;;
77581;SDS011;66726;52.388;9.986;2023-05-20T13:06:37;6.67;;;4.90;;
77581;SDS011;66726;52.388;9.986;2023-05-20T13:09:12;4.70;;;4.10;;
77581;SDS011;66726;52.388;9.986;2023-05-20T13:11:45;5.67;;;4.10;;
77581;SDS011;66726;52.388;9.986;2023-05-20T13:14:19;4.90;;;3.93;;
77581;SDS011;66726;52.388;9.986;2023-05-20T13:16:52;5.23;;;4.30;;
77581;SDS011;66726;52.388;9.986;2023-05-20T13:19:26;6.17;;;4.60;;
77581;SDS011;66726;52.388;9.986;2023-05-20T13:21:59;5.17;;;4.27;;
77581;SDS011;66726;52.388;9.986;2023-05-20T13:24:36;6.90;;;4.30;;
77581;SDS011;66726;52.388;9.986;2023-05-20T13:27:09;5.60;;;4.87;;
77581;SDS011;66726;52.388;9.986;2023-05-20T13:29:43;5.67;;;4.13;;
77581;SDS011;66726;52.388;9.986;2023-05-20T13:32:16;5.73;;;4.60;;
77581;SDS011;66726;52.388;9.986;2023-05-20T13:34:50;4.77;;;4.37;;
77581;SDS011;66726;52.388;9.986;2023-05-20T13:37:24;6.13;;;4.20;;
77581;SDS011;66726;52.388;9.986;2023-05-20T13:39:58;5.43;;;4.20;;
77581;SDS011;66726;52.388;9.986;2023-05-20T13:42:31;6.37;;;4.60;;
77581;SDS011;66726;52.388;9.986;2023-05-20T13:45:05;5.10;;;4.47;;
77581;SDS011;66726;52.388;9.986;2023-05-20T13:47:40;6.73;;;4.60;;
77581;SDS011;66726;52.388;9.986;2023-05-20T13:50:14;5.10;;;4.20;;
77581;SDS011;66726;52.388;9.986;2023-05-20T13:52:48;5.10;;;4.53;;
77581;SDS011;66726;52.388;9.986;2023-05-20T13:55:21;6.70;;;4.87;;
77581;SDS011;66726;52.388;9.986;2023-05-20T13:57:55;6.13;;;4.63;;
77581;SDS011;66726;52.388;9.986;2023-05-20T14:00:28;5.63;;;4.43;;
77581;SDS011;66726;52.388;9.986;2023-05-20T14:03:01;6.20;;;4.13;;
77581;SDS011;66726;52.388;9.986;2023-05-20T14:05:36;4.93;;;4.43;;
77581;SDS011;66726;52.388;9.986;2023-05-20T14:08:10;6.47;;;4.60;;
77581;SDS011;66726;52.388;9.986;2023-05-20T14:10:44;5.57;;;4.33;;
77581;SDS011;66726;52.388;9.986;2023-05-20T14:13:21;3.80;;;3.40;;
77581;SDS011;66726;52.388;9.986;2023-05-20T14:15:55;5.10;;;4.20;;
77581;SDS011;66726;52.388;9.986;2023-05-20T14:18:28;5.60;;;4.30;;
77581;SDS011;66726;52.388;9.986;2023-05-20T14:21:01;4.47;;;3.97;;
77581;SDS011;66726;52.388;9.986;2023-05-20T14:23:35;4.37;;;3.97;;
77581;SDS011;66726;52.388;9.986;2023-05-20T14:26:11;4.30;;;3.90;;
77581;SDS011;66726;52.388;9.986;2023-05-20T14:28:44;5.93;;;3.93;;
77581;SDS011;66726;52.388;9.986;2023-05-20T14:31:19;4.87;;;3.57;;
77581;SDS011;66726;52.388;9.986;2023-05-20T14:33:52;6.17;;;4.73;;
77581;SDS011;66726;52.388;9.986;2023-05-20T14:36:25;4.90;;;4.37;;
77581;SDS011;66726;52.388;9.986;2023-05-20T14:38:59;5.03;;;4.33;;
77581;SDS011;66726;52.388;9.986;2023-05-20T14:41:32;5.10;;;4.07;;
77581;SDS011;66726;52.388;9.986;2023-05-20T14:44:06;4.90;;;4.40;;
77581;SDS011;66726;52.388;9.986;2023-05-20T14:46:39;5.43;;;4.50;;
77581;SDS011;66726;52.388;9.986;2023-05-20T14:49:12;5.53;;;4.57;;
77581;SDS011;66726;52.388;9.986;2023-05-20T14:51:46;5.43;;;4.17;;
77581;SDS011;66726;52.388;9.986;2023-05-20T14:54:19;5.90;;;4.40;;
77581;SDS011;66726;52.388;9.986;2023-05-20T14:56:55;5.10;;;4.00;;
77581;SDS011;66726;52.388;9.986;2023-05-20T14:59:28;4.70;;;4.30;;
77581;SDS011;66726;52.388;9.986;2023-05-20T15:02:02;5.93;;;4.77;;
77581;SDS011;66726;52.388;9.986;2023-05-20T15:04:35;5.13;;;4.47;;
77581;SDS011;66726;52.388;9.986;2023-05-20T15:07:11;5.47;;;4.20;;
77581;SDS011;66726;52.388;9.986;2023-05-20T15:09:44;5.77;;;4.60;;
77581;SDS011;66726;52.388;9.986;2023-05-20T15:12:17;5.13;;;4.60;;
77581;SDS011;66726;52.388;9.986;2023-05-20T15:14:51;5.93;;;4.50;;
77581;SDS011;66726;52.388;9.986;2023-05-20T15:17:24;6.13;;;4.07;;
77581;SDS011;66726;52.388;9.986;2023-05-20T15:19:57;8.33;;;4.30;;
77581;SDS011;66726;52.388;9.986;2023-05-20T15:22:31;4.87;;;4.30;;
77581;SDS011;66726;52.388;9.986;2023-05-20T15:25:05;5.23;;;4.50;;
77581;SDS011;66726;52.388;9.986;2023-05-20T15:27:40;5.03;;;4.53;;
77581;SDS011;66726;52.388;9.986;2023-05-20T15:30:15;6.17;;;4.70;;
77581;SDS011;66726;52.388;9.986;2023-05-20T15:32:49;5.70;;;4.43;;